createdAt,value
2018-07-24T00:00:57.218Z,65.41
2018-07-24T00:03:27.617Z,65.57
2018-07-24T00:05:57.976Z,65.18
2018-07-24T00:08:28.334Z,65.16
2018-07-24T00:10:58.734Z,64.93
2018-07-24T00:13:29.114Z,64.96
2018-07-24T00:15:59.612Z,65.14
2018-07-24T00:18:29.976Z,64.77
2018-07-24T00:21:00.343Z,64.98
2018-07-24T00:23:30.684Z,64.56
2018-07-24T00:26:01.046Z,64.94
2018-07-24T00:28:31.224Z,64.74
2018-07-24T00:31:01.614Z,65.28
2018-07-24T00:33:32.080Z,65.31
2018-07-24T00:36:02.394Z,65.65
2018-07-24T00:38:32.955Z,66.11
2018-07-24T00:41:03.254Z,66.50
2018-07-24T00:43:33.762Z,65.58
2018-07-24T00:46:04.295Z,65.97
2018-07-24T00:48:34.668Z,66.54
2018-07-24T00:51:05.182Z,66.67
2018-07-24T00:53:35.703Z,66.49
2018-07-24T00:56:06.456Z,66.76
2018-07-24T00:58:37.023Z,66.33
2018-07-24T01:01:07.464Z,66.31
2018-07-24T01:03:37.848Z,66.76
2018-07-24T01:06:08.173Z,67.19
2018-07-24T01:08:39.097Z,66.84
2018-07-24T01:11:09.863Z,67.10
2018-07-24T01:13:40.377Z,67.32
2018-07-24T01:16:11.081Z,66.70
2018-07-24T01:18:41.797Z,66.50
2018-07-24T01:21:12.283Z,66.42
2018-07-24T01:23:42.838Z,66.51
2018-07-24T01:26:13.327Z,66.43
2018-07-24T01:28:43.700Z,66.34
2018-07-24T01:31:14.066Z,66.12
2018-07-24T01:33:44.701Z,66.62
2018-07-24T01:36:15.210Z,66.77
2018-07-24T01:38:45.548Z,66.44
2018-07-24T01:41:16.033Z,66.60
2018-07-24T01:43:46.362Z,66.43
2018-07-24T01:46:16.876Z,66.72
2018-07-24T01:48:47.430Z,66.57
2018-07-24T01:51:17.841Z,66.66
2018-07-24T01:53:48.380Z,66.59
2018-07-24T01:56:18.879Z,67.15
2018-07-24T01:58:49.202Z,66.58
2018-07-24T02:01:19.644Z,67.23
2018-07-24T02:06:47.374Z,67.08
2018-07-24T02:09:18.410Z,66.73
2018-07-24T02:11:48.759Z,66.98
2018-07-24T02:14:19.143Z,66.69
2018-07-24T02:16:49.767Z,67.05
2018-07-24T02:19:20.328Z,66.97
2018-07-24T02:21:50.902Z,66.74
2018-07-24T02:24:21.577Z,67.13
2018-07-24T02:26:52.371Z,66.66
2018-07-24T02:29:22.910Z,67.31
2018-07-24T02:31:53.335Z,66.97
2018-07-24T02:34:23.686Z,66.80
2018-07-24T02:36:54.132Z,66.87
2018-07-24T02:39:24.564Z,66.66
2018-07-24T02:41:55.228Z,66.87
2018-07-24T02:44:25.601Z,66.56
2018-07-24T02:46:56.094Z,66.31
2018-07-24T02:49:26.758Z,66.75
2018-07-24T02:51:57.188Z,65.96
2018-07-24T02:54:27.631Z,66.34
2018-07-24T02:56:58.141Z,66.14
2018-07-24T02:59:28.712Z,66.28
2018-07-24T03:01:59.099Z,65.91
2018-07-24T03:04:29.374Z,66.18
2018-07-24T03:06:59.818Z,66.32
2018-07-24T03:09:30.581Z,65.89
2018-07-24T03:12:01.001Z,66.11
2018-07-24T03:14:31.593Z,65.90
2018-07-24T03:17:02.265Z,65.75
2018-07-24T03:19:32.604Z,65.29
2018-07-24T03:22:02.963Z,65.51
2018-07-24T03:24:33.298Z,65.12
2018-07-24T03:27:03.927Z,65.27
2018-07-24T03:29:34.819Z,64.95
2018-07-24T03:32:05.151Z,65.45
2018-07-24T03:34:35.489Z,65.32
2018-07-24T03:37:06.061Z,65.28
2018-07-24T03:39:36.361Z,65.13
2018-07-24T03:42:07.111Z,64.60
2018-07-24T03:44:37.469Z,64.86
2018-07-24T03:47:07.871Z,64.60
2018-07-24T03:49:38.501Z,64.32
2018-07-24T03:52:08.836Z,64.26
2018-07-24T03:54:39.319Z,63.44
2018-07-24T03:57:10.254Z,63.39
2018-07-24T03:59:40.816Z,63.65
2018-07-24T04:02:11.512Z,63.95
2018-07-24T04:04:42.117Z,63.74
2018-07-24T04:07:12.434Z,63.14
2018-07-24T04:09:42.929Z,63.14
2018-07-24T04:12:13.723Z,62.95
2018-07-24T04:14:44.162Z,63.14
2018-07-24T04:17:14.530Z,63.34
2018-07-24T04:19:44.918Z,63.16
2018-07-24T04:22:15.582Z,62.91
2018-07-24T04:24:46.709Z,63.00
2018-07-24T04:27:17.113Z,63.18
2018-07-24T04:29:47.442Z,62.17
2018-07-24T04:32:17.835Z,62.07
2018-07-24T04:34:48.158Z,62.11
2018-07-24T04:37:18.767Z,62.03
2018-07-24T04:39:49.279Z,62.40
2018-07-24T04:42:19.803Z,62.48
2018-07-24T04:44:50.241Z,62.51
2018-07-24T04:47:20.820Z,62.24
2018-07-24T04:49:51.228Z,62.10
2018-07-24T04:52:21.555Z,62.36
2018-07-24T04:54:52.160Z,61.98
2018-07-24T04:57:22.678Z,61.14
2018-07-24T04:59:53.157Z,61.36
2018-07-24T05:02:23.728Z,61.14
2018-07-24T05:04:54.109Z,61.04
2018-07-24T05:07:24.977Z,60.84
2018-07-24T05:09:55.228Z,61.33
2018-07-24T05:12:25.633Z,61.61
2018-07-24T05:14:56.243Z,61.23
2018-07-24T05:17:26.711Z,61.18
2018-07-24T05:19:57.274Z,60.92
2018-07-24T05:22:27.701Z,60.54
2018-07-24T05:24:58.255Z,60.16
2018-07-24T05:27:28.664Z,59.94
2018-07-24T05:29:59.040Z,60.28
2018-07-24T05:32:29.585Z,60.32
2018-07-24T05:34:59.950Z,60.47
2018-07-24T05:37:30.386Z,60.54
2018-07-24T05:40:00.894Z,60.84
2018-07-24T05:42:31.212Z,60.63
2018-07-24T05:45:01.675Z,60.36
2018-07-24T05:47:31.941Z,60.85
2018-07-24T05:50:02.326Z,60.32
2018-07-24T05:52:32.915Z,60.27
2018-07-24T05:55:03.243Z,59.63
2018-07-24T05:57:33.622Z,59.42
2018-07-24T06:00:04.192Z,58.46
2018-07-24T06:02:34.801Z,58.53
2018-07-24T06:05:05.651Z,57.54
2018-07-24T06:07:36.276Z,56.82
2018-07-24T06:10:06.622Z,51.20
2018-07-24T06:12:37.090Z,50.55
2018-07-24T06:15:08.813Z,52.90
2018-07-24T06:17:39.221Z,53.78
2018-07-24T06:20:10.883Z,55.09
2018-07-24T06:22:41.503Z,56.27
2018-07-24T06:25:11.880Z,56.47
2018-07-24T06:27:42.509Z,56.72
2018-07-24T06:30:13.227Z,56.71
2018-07-24T06:32:43.579Z,57.02
2018-07-24T06:35:14.042Z,57.11
2018-07-24T06:37:44.519Z,57.47
2018-07-24T06:40:15.237Z,57.61
2018-07-24T06:42:45.612Z,58.40
2018-07-24T06:45:15.996Z,57.59
2018-07-24T06:47:46.424Z,56.86
2018-07-24T06:50:16.829Z,56.37
2018-07-24T06:52:47.328Z,56.48
2018-07-24T06:55:17.797Z,56.21
2018-07-24T06:57:48.380Z,56.47
2018-07-24T07:00:18.733Z,56.16
2018-07-24T07:02:49.032Z,55.73
2018-07-24T07:05:19.496Z,55.82
2018-07-24T07:07:49.949Z,56.61
2018-07-24T07:10:20.360Z,56.05
2018-07-24T07:12:50.642Z,55.13
2018-07-24T07:15:20.986Z,54.45
2018-07-24T07:17:51.281Z,53.68
2018-07-24T07:20:21.897Z,51.63
2018-07-24T07:22:52.188Z,49.97
2018-07-24T07:25:22.910Z,46.80
2018-07-24T07:27:53.622Z,41.66
2018-07-24T07:30:23.996Z,38.56
2018-07-24T07:32:54.358Z,37.00
2018-07-24T07:35:24.851Z,37.18
2018-07-24T07:37:55.408Z,38.51
2018-07-24T07:40:25.758Z,38.51
2018-07-24T07:42:56.262Z,41.01
2018-07-24T07:45:26.832Z,40.63
2018-07-24T07:47:57.183Z,37.77
2018-07-24T07:50:28.714Z,38.43
2018-07-24T07:52:59.162Z,37.79
2018-07-24T07:55:29.986Z,37.53
2018-07-24T07:58:00.567Z,37.14
2018-07-24T08:00:30.964Z,37.80
2018-07-24T08:03:01.302Z,38.06
2018-07-24T08:05:31.641Z,39.17
2018-07-24T08:08:02.054Z,38.90
2018-07-24T08:10:32.602Z,39.61
2018-07-24T08:13:02.962Z,40.24
2018-07-24T08:15:33.540Z,41.65
2018-07-24T08:18:04.068Z,41.52
2018-07-24T08:20:34.446Z,41.76
2018-07-24T08:23:05.384Z,43.18
2018-07-24T08:25:35.724Z,42.71
2018-07-24T08:28:07.311Z,43.25
2018-07-24T08:30:38.014Z,41.90
2018-07-24T08:33:08.580Z,40.98
2018-07-24T08:35:39.219Z,41.26
2018-07-24T08:38:10.060Z,42.92
2018-07-24T08:40:41.589Z,43.45
2018-07-24T08:43:12.487Z,44.28
2018-07-24T08:45:43.187Z,44.86
2018-07-24T08:48:13.862Z,43.89
2018-07-24T08:50:44.507Z,44.21
2018-07-24T08:53:15.524Z,44.57
2018-07-24T08:55:46.566Z,44.62
2018-07-24T08:58:16.983Z,45.12
2018-07-24T09:00:47.512Z,45.06
2018-07-24T09:03:18.254Z,44.28
2018-07-24T09:05:48.565Z,45.13
2018-07-24T09:08:18.962Z,45.55
2018-07-24T09:10:49.498Z,45.65
2018-07-24T09:13:19.869Z,44.62
2018-07-24T09:15:51.186Z,41.36
2018-07-24T09:18:21.400Z,40.04
2018-07-24T09:20:51.680Z,40.21
2018-07-24T09:23:22.011Z,40.08
2018-07-24T09:25:52.417Z,40.45
2018-07-24T09:28:22.977Z,39.35
2018-07-24T09:30:53.545Z,37.50
2018-07-24T09:33:24.965Z,38.44
2018-07-24T09:35:55.278Z,39.54
2018-07-24T09:38:25.741Z,41.25
2018-07-24T09:40:56.109Z,41.07
2018-07-24T09:43:26.510Z,42.32
2018-07-24T09:45:56.920Z,42.30
2018-07-24T09:48:27.244Z,40.43
2018-07-24T09:50:57.540Z,39.92
2018-07-24T09:53:28.074Z,40.15
2018-07-24T09:55:58.221Z,40.36
2018-07-24T09:58:28.593Z,40.57
2018-07-24T10:01:04.113Z,41.14
2018-07-24T10:03:34.335Z,40.68
2018-07-24T10:06:04.790Z,41.33
2018-07-24T10:08:35.090Z,40.24
2018-07-24T10:11:05.611Z,39.76
2018-07-24T10:13:35.845Z,40.86
2018-07-24T10:16:06.505Z,39.28
2018-07-24T10:18:36.892Z,39.12
2018-07-24T10:21:07.570Z,38.20
2018-07-24T10:23:37.955Z,37.97
2018-07-24T10:26:08.865Z,38.74
2018-07-24T10:28:39.205Z,36.90
2018-07-24T10:31:09.632Z,36.36
2018-07-24T10:33:39.918Z,36.43
2018-07-24T10:36:10.528Z,36.98
2018-07-24T10:38:40.858Z,36.32
2018-07-24T10:41:11.694Z,35.60
2018-07-24T10:43:42.234Z,34.34
2018-07-24T10:46:12.709Z,35.78
2018-07-24T10:48:43.037Z,37.07
2018-07-24T10:51:13.346Z,36.85
2018-07-24T10:53:43.637Z,38.10
2018-07-24T10:56:13.946Z,36.99
2018-07-24T10:58:44.298Z,37.71
2018-07-24T11:01:14.638Z,34.72
2018-07-24T11:03:45.088Z,32.73
2018-07-24T11:06:15.329Z,33.31
2018-07-24T11:08:46.385Z,35.04
2018-07-24T11:11:16.655Z,36.76
2018-07-24T11:13:47.162Z,36.69
2018-07-24T11:16:17.807Z,37.52
2018-07-24T11:18:48.439Z,37.39
2018-07-24T11:21:18.606Z,37.15
2018-07-24T11:23:48.969Z,37.88
2018-07-24T11:26:19.438Z,37.67
2018-07-24T11:28:50.051Z,36.17
2018-07-24T11:31:20.552Z,33.29
2018-07-24T11:33:50.908Z,32.93
2018-07-24T11:36:22.337Z,33.85
2018-07-24T11:38:52.925Z,34.57
2018-07-24T11:41:23.238Z,34.62
2018-07-24T11:43:53.673Z,36.28
2018-07-24T11:46:24.110Z,36.55
2018-07-24T11:48:54.606Z,37.92
2018-07-24T11:51:25.282Z,38.26
2018-07-24T11:53:55.716Z,39.13
2018-07-24T11:56:26.107Z,37.77
2018-07-24T11:58:56.405Z,37.25
2018-07-24T12:01:26.859Z,35.64
2018-07-24T12:03:58.028Z,36.14
2018-07-24T12:06:28.362Z,36.43
2018-07-24T12:08:58.722Z,38.02
2018-07-24T12:11:29.108Z,38.16
2018-07-24T12:13:59.549Z,39.89
2018-07-24T12:16:30.080Z,41.70
2018-07-24T12:19:00.523Z,42.29
2018-07-24T12:21:30.832Z,43.16
2018-07-24T12:24:01.424Z,43.82
2018-07-24T12:26:31.883Z,43.30
2018-07-24T12:29:02.331Z,43.20
2018-07-24T12:31:32.435Z,43.24
2018-07-24T12:34:02.970Z,42.19
2018-07-24T12:36:33.618Z,41.91
2018-07-24T12:39:04.808Z,41.75
2018-07-24T12:41:36.228Z,41.24
2018-07-24T12:44:06.514Z,41.10
2018-07-24T12:46:37.228Z,40.89
2018-07-24T12:49:07.539Z,41.05
2018-07-24T12:51:38.174Z,42.21
2018-07-24T12:54:08.507Z,42.00
2018-07-24T12:56:39.087Z,43.00
2018-07-24T12:59:09.506Z,45.09
2018-07-24T13:01:39.909Z,45.35
2018-07-24T13:04:10.541Z,45.61
2018-07-24T13:06:41.076Z,46.27
2018-07-24T13:09:12.308Z,45.45
2018-07-24T13:11:42.822Z,44.88
2018-07-24T13:14:13.355Z,43.93
2018-07-24T13:16:44.329Z,42.81
2018-07-24T13:19:14.743Z,43.14
2018-07-24T13:21:45.352Z,43.80
2018-07-24T13:24:15.705Z,43.76
2018-07-24T13:26:46.070Z,42.70
2018-07-24T13:29:16.416Z,44.34
2018-07-24T13:31:47.020Z,42.86
2018-07-24T13:34:17.416Z,42.23
2018-07-24T13:36:47.783Z,41.55
2018-07-24T13:39:18.322Z,42.10
2018-07-24T13:41:48.773Z,42.44
2018-07-24T13:44:19.012Z,44.53
2018-07-24T13:46:49.790Z,44.14
2018-07-24T13:49:20.444Z,43.95
2018-07-24T13:51:50.761Z,43.57
2018-07-24T13:54:21.066Z,44.20
2018-07-24T13:56:51.476Z,44.69
2018-07-24T13:59:22.013Z,45.23
2018-07-24T14:01:52.772Z,46.77
2018-07-24T14:04:23.326Z,46.81
2018-07-24T14:06:54.345Z,46.43
2018-07-24T14:09:24.783Z,47.25
2018-07-24T14:11:55.274Z,47.07
2018-07-24T14:14:25.667Z,46.71
2018-07-24T14:16:55.983Z,47.50
2018-07-24T14:19:26.393Z,47.00
2018-07-24T14:21:56.747Z,46.97
2018-07-24T14:24:27.448Z,46.35
2018-07-24T14:26:57.885Z,46.54
2018-07-24T14:29:28.176Z,46.19
2018-07-24T14:31:58.901Z,47.04
2018-07-24T14:34:29.245Z,46.25
2018-07-24T14:36:59.939Z,45.48
2018-07-24T14:39:30.595Z,45.62
2018-07-24T14:42:00.946Z,45.45
2018-07-24T14:44:31.355Z,45.29
2018-07-24T14:47:01.992Z,45.01
2018-07-24T14:49:32.346Z,45.13
2018-07-24T14:52:02.798Z,44.82
2018-07-24T14:54:33.183Z,44.43
2018-07-24T14:57:03.730Z,43.54
2018-07-24T14:59:34.267Z,44.27
2018-07-24T15:02:04.737Z,44.38
2018-07-24T15:04:35.085Z,43.57
2018-07-24T15:07:05.590Z,43.81
2018-07-24T15:09:36.393Z,43.88
2018-07-24T15:12:06.759Z,44.42
2018-07-24T15:14:37.299Z,44.75
2018-07-24T15:17:08.446Z,45.46
2018-07-24T15:19:39.017Z,46.02
2018-07-24T15:22:09.692Z,45.42
2018-07-24T15:24:40.120Z,44.91
2018-07-24T15:27:10.601Z,45.04
2018-07-24T15:29:40.934Z,45.12
2018-07-24T15:32:11.622Z,44.82
2018-07-24T15:34:42.352Z,45.08
2018-07-24T15:37:13.303Z,44.41
2018-07-24T15:39:43.915Z,44.24
2018-07-24T15:42:14.554Z,44.90
2018-07-24T15:44:45.125Z,45.37
2018-07-24T15:47:15.613Z,44.88
2018-07-24T15:49:46.377Z,45.13
2018-07-24T15:52:16.780Z,44.13
2018-07-24T15:54:47.250Z,44.83
2018-07-24T15:57:17.702Z,44.74
2018-07-24T15:59:48.111Z,44.83
2018-07-24T16:02:18.439Z,45.82
2018-07-24T16:04:48.997Z,46.73
2018-07-24T16:07:19.338Z,47.72
2018-07-24T16:09:49.717Z,47.77
2018-07-24T16:12:20.087Z,48.23
2018-07-24T16:14:50.496Z,48.42
2018-07-24T16:17:21.805Z,49.19
2018-07-24T16:19:52.187Z,48.34
2018-07-24T16:22:22.638Z,48.03
2018-07-24T16:24:53.080Z,47.81
2018-07-24T16:27:23.568Z,48.10
2018-07-24T16:29:53.829Z,48.17
2018-07-24T16:32:24.495Z,48.27
2018-07-24T16:34:54.871Z,48.24
2018-07-24T16:37:25.331Z,48.28
2018-07-24T16:39:55.965Z,47.98
2018-07-24T16:42:26.513Z,48.24
2018-07-24T16:44:56.865Z,48.69
2018-07-24T16:47:27.718Z,49.35
2018-07-24T16:49:58.063Z,49.05
2018-07-24T16:52:28.383Z,49.06
2018-07-24T16:54:58.970Z,49.83
2018-07-24T16:57:29.361Z,50.05
2018-07-24T16:59:59.808Z,49.92
2018-07-24T17:02:30.562Z,50.32
2018-07-24T17:05:00.923Z,50.61
2018-07-24T17:07:31.483Z,50.95
2018-07-24T17:10:02.719Z,51.02
2018-07-24T17:12:33.329Z,50.92
2018-07-24T17:15:03.872Z,51.62
2018-07-24T17:17:35.568Z,51.65
2018-07-24T17:20:06.443Z,51.94
2018-07-24T17:22:37.285Z,51.28
2018-07-24T17:25:07.954Z,51.53
2018-07-24T17:27:38.346Z,52.01
2018-07-24T17:30:08.771Z,52.32
2018-07-24T17:32:39.338Z,52.38
2018-07-24T17:35:09.927Z,52.84
2018-07-24T17:37:40.867Z,53.28
2018-07-24T17:40:12.013Z,53.31
2018-07-24T17:42:43.212Z,53.22
2018-07-24T17:45:13.707Z,53.65
2018-07-24T17:47:44.299Z,53.82
2018-07-24T17:50:14.826Z,53.47
2018-07-24T17:52:45.411Z,53.94
2018-07-24T17:55:15.780Z,53.65
2018-07-24T17:57:46.208Z,53.53
2018-07-24T18:00:16.810Z,53.79
2018-07-24T18:02:47.985Z,53.52
2018-07-24T18:05:18.339Z,52.99
2018-07-24T18:07:48.930Z,53.45
2018-07-24T18:10:19.437Z,52.79
2018-07-24T18:12:50.040Z,53.13
2018-07-24T18:15:20.856Z,53.01
2018-07-24T18:17:51.442Z,53.71
2018-07-24T18:20:21.940Z,53.88
2018-07-24T18:22:52.325Z,53.80
2018-07-24T18:25:22.809Z,54.21
2018-07-24T18:27:53.289Z,54.39
2018-07-24T18:30:23.726Z,54.07
2018-07-24T18:32:54.077Z,54.11
2018-07-24T18:35:24.550Z,54.19
2018-07-24T18:37:55.171Z,54.18
2018-07-24T18:40:25.632Z,53.71
2018-07-24T18:42:56.036Z,52.32
2018-07-24T18:45:26.525Z,52.30
2018-07-24T18:47:56.906Z,52.82
2018-07-24T18:50:27.210Z,52.88
2018-07-24T18:52:57.517Z,53.59
2018-07-24T18:55:27.854Z,52.92
2018-07-24T18:57:58.177Z,52.97
2018-07-24T19:00:28.692Z,53.39
2018-07-24T19:02:59.176Z,53.31
2018-07-24T19:05:29.759Z,53.71
2018-07-24T19:08:00.218Z,53.23
2018-07-24T19:10:31.516Z,53.89
2018-07-24T19:13:02.199Z,56.42
2018-07-24T19:15:32.668Z,59.24
2018-07-24T19:18:03.843Z,60.37
2018-07-24T19:20:34.452Z,62.82
2018-07-24T19:23:05.012Z,66.17
2018-07-24T19:25:36.547Z,69.02
2018-07-24T19:28:06.866Z,71.65
2018-07-24T19:30:37.497Z,74.31
2018-07-24T19:33:07.815Z,76.73
2018-07-24T19:35:38.415Z,78.22
2018-07-24T19:38:08.958Z,79.13
2018-07-24T19:40:39.387Z,79.39
2018-07-24T19:43:10.029Z,78.54
2018-07-24T19:45:40.670Z,78.39
2018-07-24T19:48:11.087Z,78.49
2018-07-24T19:50:41.478Z,77.84
2018-07-24T19:53:12.167Z,77.49
2018-07-24T19:55:42.509Z,76.75
2018-07-24T19:58:12.895Z,76.03
2018-07-24T20:00:43.683Z,75.84
2018-07-24T20:03:14.067Z,74.66
2018-07-24T20:05:44.518Z,74.91
2018-07-24T20:08:14.807Z,73.88
2018-07-24T20:10:45.247Z,73.93
2018-07-24T20:13:16.009Z,73.90
2018-07-24T20:15:46.513Z,73.50
2018-07-24T20:18:16.773Z,72.87
2018-07-24T20:20:47.401Z,72.38
2018-07-24T20:23:18.019Z,71.80
2018-07-24T20:25:48.321Z,71.52
2018-07-24T20:28:18.727Z,71.24
2018-07-24T20:30:49.206Z,70.43
2018-07-24T20:33:19.872Z,70.58
2018-07-24T20:35:50.279Z,70.34
2018-07-24T20:38:20.696Z,69.98
2018-07-24T20:40:51.211Z,70.07
2018-07-24T20:43:21.746Z,69.87
2018-07-24T20:45:52.420Z,69.61
2018-07-24T20:48:22.782Z,69.78
2018-07-24T20:50:53.312Z,69.80
2018-07-24T20:53:24.527Z,69.41
2018-07-24T20:55:56.205Z,68.94
2018-07-24T20:58:26.490Z,68.12
2018-07-24T21:00:57.018Z,68.71
2018-07-24T21:03:27.674Z,67.87
2018-07-24T21:05:58.225Z,68.71
2018-07-24T21:08:28.932Z,68.22
2018-07-24T21:10:59.442Z,68.02
2018-07-24T21:13:29.674Z,68.29
2018-07-24T21:16:00.787Z,67.88
2018-07-24T21:18:31.248Z,67.30
2018-07-24T21:21:03.228Z,67.95
2018-07-24T21:23:33.802Z,69.67
2018-07-24T21:26:04.447Z,72.48
2018-07-24T21:28:35.009Z,74.06
2018-07-24T21:31:05.349Z,73.81
2018-07-24T21:33:35.730Z,75.43
2018-07-24T21:36:06.095Z,76.03
2018-07-24T21:38:37.593Z,75.56
2018-07-24T21:41:08.502Z,75.38
2018-07-24T21:43:39.164Z,75.71
2018-07-24T21:46:09.498Z,75.14
2018-07-24T21:48:39.837Z,74.78
2018-07-24T21:51:10.140Z,74.10
2018-07-24T21:53:40.518Z,74.64
2018-07-24T21:56:10.906Z,74.01
2018-07-24T21:58:41.395Z,74.08
2018-07-24T22:01:12.119Z,73.34
2018-07-24T22:03:43.019Z,73.34
2018-07-24T22:06:13.260Z,73.02
2018-07-24T22:08:43.599Z,73.14
2018-07-24T22:11:14.117Z,72.63
2018-07-24T22:13:44.629Z,72.91
2018-07-24T22:16:15.214Z,73.34
2018-07-24T22:18:45.613Z,73.91
2018-07-24T22:21:16.140Z,74.08
2018-07-24T22:23:46.592Z,73.98
2018-07-24T22:26:17.037Z,74.32
2018-07-24T22:28:47.783Z,74.38
2018-07-24T22:31:18.468Z,74.63
2018-07-24T22:33:48.898Z,74.16
2018-07-24T22:36:19.874Z,74.43
2018-07-24T22:38:50.331Z,74.10
2018-07-24T22:41:20.618Z,73.87
2018-07-24T22:43:51.214Z,74.08
2018-07-24T22:46:21.573Z,74.73
2018-07-24T22:48:52.085Z,74.16
2018-07-24T22:51:22.461Z,74.38
2018-07-24T22:53:52.895Z,74.30
2018-07-24T22:56:23.874Z,74.01
2018-07-24T22:58:54.670Z,73.65
2018-07-24T23:01:25.145Z,74.12
2018-07-24T23:03:55.680Z,73.82
2018-07-24T23:06:26.008Z,73.64
2018-07-24T23:08:56.430Z,73.46
2018-07-24T23:11:27.038Z,72.97
2018-07-24T23:13:57.364Z,72.38
2018-07-24T23:16:28.319Z,72.41
2018-07-24T23:18:58.729Z,72.13
2018-07-24T23:21:29.102Z,71.60
2018-07-24T23:23:59.577Z,71.17
2018-07-24T23:26:29.923Z,71.15
2018-07-24T23:29:00.252Z,71.11
2018-07-24T23:31:30.860Z,70.84
2018-07-24T23:34:01.194Z,70.71
2018-07-24T23:36:31.766Z,70.60
2018-07-24T23:39:02.195Z,71.08
2018-07-24T23:41:32.774Z,71.42
2018-07-24T23:44:03.210Z,71.11
2018-07-24T23:46:33.544Z,71.29
2018-07-24T23:49:04.403Z,72.05
2018-07-24T23:51:34.858Z,71.79
2018-07-24T23:54:05.214Z,71.76
2018-07-24T23:56:35.712Z,72.33
2018-07-24T23:59:06.302Z,72.36
